Time;durP1;ratioP1;P1;durP2;ratioP2;P2;SDS_P1;SDS_P2;PMS_P1;PMS_P2;Temp;Humidity;BMP_temperature;BMP_pressure;BME280_temperature;BME280_humidity;BME280_pressure;Samples;Min_cycle;Max_cycle;Signal;HPM_P1;HPM_P2
2022/11/20 00:00:54;;;;;;;14.40;13.00;;;;;9.70;98410.00;;;;16638282;28;20333;-47
2022/11/20 00:09:01;;;;;;;22.67;19.20;;;;;10.10;98392.00;;;;16638931;28;20380;-47
2022/11/20 00:17:03;;;;;;;14.17;12.77;;;;;9.80;98403.00;;;;16635913;28;20223;-47
2022/11/20 00:25:08;;;;;;;14.47;12.97;;;;;8.60;98418.00;;;;16643491;28;20244;-47
2022/11/20 00:33:10;;;;;;;14.90;13.37;;;;;8.80;98409.00;;;;16646351;28;20222;-47
2022/11/20 00:41:15;;;;;;;13.43;12.17;;;;;9.10;98403.00;;;;16638125;28;20663;-47
2022/11/20 00:49:18;;;;;;;11.90;10.73;;;;;10.00;98395.00;;;;16634352;28;20218;-48
2022/11/20 00:57:22;;;;;;;10.90;9.80;;;;;10.10;98415.00;;;;16644905;28;20307;-48
2022/11/20 01:05:24;;;;;;;10.17;9.13;;;;;10.50;98401.00;;;;16640567;28;20215;-48
2022/11/20 01:13:41;;;;;;;11.40;8.30;;;;;10.70;98407.00;;;;16639894;28;20611;-48
2022/11/20 01:21:44;;;;;;;8.27;7.57;;;;;10.90;98406.00;;;;16640479;28;20215;-48
2022/11/20 01:29:48;;;;;;;7.53;5.70;;;;;10.60;98427.00;;;;16606267;28;20266;-47
2022/11/20 01:37:52;;;;;;;5.07;4.57;;;;;10.60;98425.00;;;;16606838;28;20227;-47
2022/11/20 01:46:09;;;;;;;4.90;4.33;;;;;11.00;98405.00;;;;16594624;28;20719;-48
2022/11/20 01:54:15;;;;;;;5.43;4.83;;;;;11.00;98411.00;;;;16603194;28;20226;-47
2022/11/20 02:02:19;;;;;;;4.10;3.80;;;;;10.40;98416.00;;;;16600830;28;20231;-47
2022/11/20 02:10:22;;;;;;;5.40;4.10;;;;;10.30;98418.00;;;;16597689;28;20321;-47
2022/11/20 02:18:26;;;;;;;4.30;4.00;;;;;9.90;98421.00;;;;16603098;28;20222;-48
2022/11/20 02:26:32;;;;;;;5.30;4.60;;;;;10.30;98424.00;;;;16599265;28;20895;-47
2022/11/20 02:34:35;;;;;;;4.43;4.03;;;;;9.80;98426.00;;;;16601162;28;20618;-47
2022/11/20 02:42:39;;;;;;;3.83;3.50;;;;;9.70;98434.00;;;;16598180;28;20652;-47
2022/11/20 02:50:42;;;;;;;4.90;4.43;;;;;9.50;98436.00;;;;16592510;28;20234;-48
2022/11/20 02:58:46;;;;;;;5.50;3.70;;;;;10.00;98431.00;;;;16593742;28;20218;-48
2022/11/20 03:06:48;;;;;;;4.00;3.70;;;;;10.40;98425.00;;;;16607158;28;20234;-48
2022/11/20 03:14:52;;;;;;;4.40;4.00;;;;;9.80;98431.00;;;;16602854;28;20277;-48
2022/11/20 03:22:55;;;;;;;7.13;4.83;;;;;9.60;98433.00;;;;16597638;28;20225;-48
2022/11/20 03:30:59;;;;;;;4.53;4.10;;;;;9.80;98423.00;;;;16597910;28;20235;-48
2022/11/20 03:39:02;;;;;;;4.97;4.53;;;;;10.60;98416.00;;;;16605424;28;20250;-48
2022/11/20 03:47:06;;;;;;;4.43;4.03;;;;;9.90;98416.00;;;;16597191;28;20227;-47
2022/11/20 03:55:09;;;;;;;4.70;4.20;;;;;9.90;98417.00;;;;16597960;28;20254;-48
2022/11/20 04:03:13;;;;;;;4.73;3.97;;;;;9.80;98419.00;;;;16590496;28;20199;-48
2022/11/20 04:11:17;;;;;;;4.00;3.70;;;;;9.50;98418.00;;;;16589821;28;20296;-47
2022/11/20 04:19:21;;;;;;;4.40;3.87;;;;;9.60;98410.00;;;;16589011;28;20241;-47
2022/11/20 04:27:23;;;;;;;4.03;3.77;;;;;9.80;98408.00;;;;16588433;28;20239;-48
2022/11/20 04:35:27;;;;;;;6.60;4.27;;;;;9.70;98402.00;;;;16588604;28;20231;-47
2022/11/20 04:43:30;;;;;;;4.20;3.90;;;;;10.30;98402.00;;;;16587730;28;20293;-47
2022/11/20 04:51:34;;;;;;;4.33;3.93;;;;;10.20;98400.00;;;;16586906;28;20741;-47
2022/11/20 04:59:37;;;;;;;4.17;3.77;;;;;9.90;98391.00;;;;16587410;28;20227;-47
2022/11/20 05:07:40;;;;;;;3.80;3.50;;;;;10.00;98388.00;;;;16586867;28;20219;-48
2022/11/20 05:15:43;;;;;;;4.77;4.37;;;;;10.20;98390.00;;;;16586438;28;20256;-47
2022/11/20 05:23:47;;;;;;;5.47;4.97;;;;;10.10;98403.00;;;;16584990;28;20199;-48
2022/11/20 05:31:50;;;;;;;5.60;5.00;;;;;10.20;98402.00;;;;16584404;28;20717;-47
2022/11/20 05:39:54;;;;;;;5.63;5.10;;;;;10.20;98396.00;;;;16585187;28;20768;-47
2022/11/20 05:48:00;;;;;;;5.33;4.83;;;;;10.10;98395.00;;;;16583371;28;20238;-48
2022/11/20 05:56:06;;;;;;;4.17;3.77;;;;;10.00;98394.00;;;;16583237;28;20231;-47
2022/11/20 06:04:09;;;;;;;5.07;4.60;;;;;10.10;98395.00;;;;16583282;28;20210;-47
2022/11/20 06:12:12;;;;;;;12.43;11.20;;;;;10.10;98392.00;;;;16583083;28;20289;-47
2022/11/20 06:20:15;;;;;;;4.60;4.20;;;;;10.10;98392.00;;;;16582744;28;20717;-47
2022/11/20 06:28:19;;;;;;;3.20;2.90;;;;;10.40;98389.00;;;;16574877;28;20555;-47
2022/11/20 06:36:23;;;;;;;3.97;3.67;;;;;10.20;98387.00;;;;16582537;28;20225;-47
2022/11/20 06:44:27;;;;;;;3.90;3.40;;;;;10.00;98380.00;;;;16595192;28;20218;-46
2022/11/20 06:52:29;;;;;;;2.90;2.70;;;;;9.80;98385.00;;;;16630413;28;20218;-47
2022/11/20 07:00:33;;;;;;;3.47;3.00;;;;;9.50;98392.00;;;;16655960;28;20221;-47
2022/11/20 07:08:36;;;;;;;3.53;3.30;;;;;10.00;98397.00;;;;16652652;28;20270;-47
2022/11/20 07:16:40;;;;;;;3.13;2.83;;;;;10.30;98412.00;;;;16630059;28;20783;-47
2022/11/20 07:24:42;;;;;;;4.40;4.00;;;;;10.20;98403.00;;;;16647407;28;20255;-47
2022/11/20 07:32:51;;;;;;;5.17;4.70;;;;;10.30;98411.00;;;;16646249;28;20222;-48
2022/11/20 07:40:56;;;;;;;3.20;2.90;;;;;10.40;98408.00;;;;16633231;28;20656;-47
2022/11/20 07:49:00;;;;;;;3.27;2.97;;;;;10.50;98418.00;;;;16624370;28;20769;-46
2022/11/20 07:57:03;;;;;;;3.83;3.53;;;;;10.40;98418.00;;;;16589434;28;20246;-47
2022/11/20 08:05:07;;;;;;;4.70;4.13;;;;;10.50;98414.00;;;;16600167;28;20601;-47
2022/11/20 08:21:32;;;;;;;4.43;3.10;;;;;10.60;98434.00;;;;16596748;28;20218;-47
2022/11/20 08:29:34;;;;;;;2.80;2.60;;;;;10.50;98427.00;;;;16612483;28;20230;-47
2022/11/20 08:37:41;;;;;;;3.77;3.27;;;;;10.80;98440.00;;;;16605241;28;20243;-47
2022/11/20 08:45:43;;;;;;;2.93;2.63;;;;;10.90;98428.00;;;;16621718;28;20318;-48
2022/11/20 08:53:49;;;;;;;2.70;2.50;;;;;10.70;98432.00;;;;16632486;28;20267;-47
2022/11/20 09:01:51;;;;;;;2.50;2.30;;;;;11.50;98436.00;;;;16636045;28;20219;-46
2022/11/20 09:09:55;;;;;;;3.03;2.50;;;;;11.60;98431.00;;;;16620816;28;20307;-48
2022/11/20 09:17:59;;;;;;;2.87;2.57;;;;;11.50;98436.00;;;;16605052;28;20303;-47
2022/11/20 09:26:05;;;;;;;6.40;4.90;;;;;11.30;98450.00;;;;16610752;28;20218;-48
2022/11/20 09:34:07;;;;;;;3.73;2.40;;;;;10.80;98453.00;;;;16568503;28;20222;-47
2022/11/20 09:42:28;;;;;;;2.13;1.80;;;;;10.60;98454.00;;;;16575670;28;20651;-47
2022/11/20 09:50:34;;;;;;;2.37;2.10;;;;;10.70;98464.00;;;;16574960;28;20298;-48
2022/11/20 09:58:42;;;;;;;3.00;2.70;;;;;10.70;98468.00;;;;16565060;28;20505;-47
2022/11/20 10:06:51;;;;;;;1.50;1.40;;;;;10.60;98458.00;;;;16549534;28;20236;-47
2022/11/20 10:15:04;;;;;;;1.83;1.57;;;;;10.90;98467.00;;;;16589054;28;20276;-47
2022/11/20 10:23:26;;;;;;;2.80;2.23;;;;;10.80;98471.00;;;;16622581;28;20253;-47
2022/11/20 10:31:34;;;;;;;2.93;2.50;;;;;10.50;98476.00;;;;16613459;28;20289;-47
2022/11/20 10:39:40;;;;;;;2.10;2.00;;;;;10.60;98487.00;;;;16591619;28;20223;-48
2022/11/20 10:47:44;;;;;;;3.33;2.20;;;;;10.10;98499.00;;;;16587129;28;20233;-48
2022/11/20 10:55:49;;;;;;;2.50;1.90;;;;;10.30;98493.00;;;;16603421;28;20247;-47
2022/11/20 11:03:53;;;;;;;3.93;3.63;;;;;10.30;98481.00;;;;16615087;28;20377;-47
2022/11/20 11:11:56;;;;;;;15.87;12.10;;;;;11.10;98470.00;;;;16622841;28;20718;-48
2022/11/20 11:20:06;;;;;;;5.70;5.20;;;;;11.30;98456.00;;;;16600737;28;20243;-47
2022/11/20 11:28:22;;;;;;;2.47;2.27;;;;;10.90;98436.00;;;;16585613;28;20219;-47
2022/11/20 11:36:26;;;;;;;4.73;4.00;;;;;11.60;98417.00;;;;16599352;28;20250;-47
2022/11/20 11:53:00;;;;;;;3.20;1.97;;;;;14.20;98373.00;;;;16604001;28;20829;-47
2022/11/20 12:01:06;;;;;;;1.40;1.30;;;;;14.80;98359.00;;;;16625782;28;20223;-47
2022/11/20 12:09:12;;;;;;;2.27;2.07;;;;;14.60;98354.00;;;;16627138;28;20214;-47
2022/11/20 12:17:15;;;;;;;4.67;3.40;;;;;13.00;98373.00;;;;16635721;28;20308;-47
2022/11/20 12:25:22;;;;;;;2.60;1.60;;;;;12.50;98361.00;;;;16631215;28;20207;-47
2022/11/20 12:34:06;;;;;;;2.67;1.57;;;;;12.20;98351.00;;;;16637678;28;20226;-46
2022/11/20 12:50:52;;;;;;;1.40;1.30;;;;;12.10;98368.00;;;;16611822;28;20721;-47
2022/11/20 12:59:07;;;;;;;1.60;1.50;;;;;12.70;98358.00;;;;16582484;28;20233;-47
2022/11/20 13:07:11;;;;;;;2.80;1.40;;;;;13.40;98344.00;;;;16565707;28;20730;-47
2022/11/20 13:15:26;;;;;;;2.57;1.90;;;;;12.60;98350.00;;;;16594480;28;20223;-47
2022/11/20 13:23:29;;;;;;;1.67;1.20;;;;;12.30;98361.00;;;;16570577;28;20203;-47
2022/11/20 13:31:35;;;;;;;3.27;1.50;;;;;12.10;98350.00;;;;16618363;28;20226;-47
2022/11/20 13:39:38;;;;;;;2.17;1.90;;;;;12.20;98337.00;;;;16637223;28;20740;-48
2022/11/20 13:47:49;;;;;;;2.33;2.13;;;;;12.10;98327.00;;;;16614854;28;20269;-47
2022/11/20 13:55:57;;;;;;;3.27;2.40;;;;;11.90;98335.00;;;;16624979;28;20354;-47
2022/11/20 14:04:01;;;;;;;2.47;2.00;;;;;12.10;98328.00;;;;16626057;28;20198;-46
2022/11/20 14:12:13;;;;;;;1.67;1.33;;;;;11.60;98338.00;;;;16620265;28;20682;-46
2022/11/20 14:20:22;;;;;;;3.03;2.70;;;;;11.50;98331.00;;;;16596568;28;20229;-47
2022/11/20 14:28:28;;;;;;;6.00;3.77;;;;;12.30;98319.00;;;;16583656;28;20233;-47
2022/11/20 14:36:32;;;;;;;5.70;4.03;;;;;11.50;98344.00;;;;16622930;28;20217;-48
2022/11/20 14:44:35;;;;;;;3.10;1.80;;;;;11.30;98332.00;;;;16622832;28;20207;-47
2022/11/20 14:52:39;;;;;;;3.97;3.57;;;;;11.50;98319.00;;;;16625311;28;20234;-48
2022/11/20 15:00:41;;;;;;;2.53;1.60;;;;;11.90;98303.00;;;;16608270;28;20267;-48
2022/11/20 15:08:53;;;;;;;1.57;1.47;;;;;12.30;98290.00;;;;16605812;28;20222;-48
2022/11/20 15:16:56;;;;;;;1.37;1.27;;;;;12.20;98294.00;;;;16591945;28;20229;-47
2022/11/20 15:25:00;;;;;;;4.03;1.77;;;;;12.00;98284.00;;;;16593462;28;20199;-47
2022/11/20 15:33:03;;;;;;;2.67;1.77;;;;;11.70;98283.00;;;;16592698;28;20283;-47
2022/11/20 15:41:07;;;;;;;2.00;1.63;;;;;11.70;98279.00;;;;16592495;28;20235;-47
2022/11/20 15:49:13;;;;;;;2.33;2.00;;;;;11.70;98265.00;;;;16592553;28;20644;-47
2022/11/20 15:57:17;;;;;;;2.60;1.70;;;;;11.50;98266.00;;;;16593326;28;20738;-47
2022/11/20 16:05:19;;;;;;;2.40;2.20;;;;;11.50;98262.00;;;;16596738;28;20210;-47
2022/11/20 16:21:43;;;;;;;3.43;3.17;;;;;11.30;98260.00;;;;16593773;28;20590;-47
2022/11/20 16:29:47;;;;;;;4.70;3.97;;;;;10.70;98274.00;;;;16593857;28;20652;-47
2022/11/20 16:37:50;;;;;;;11.07;8.53;;;;;10.30;98262.00;;;;16609380;28;20230;-47
2022/11/20 16:45:54;;;;;;;5.00;4.50;;;;;10.80;98246.00;;;;16608372;28;20218;-47
2022/11/20 16:53:57;;;;;;;10.37;8.73;;;;;10.90;98245.00;;;;16611435;28;20226;-47
2022/11/20 17:02:01;;;;;;;3.10;2.20;;;;;11.20;98236.00;;;;16614267;28;20264;-47
2022/11/20 17:10:03;;;;;;;8.87;7.73;;;;;10.90;98229.00;;;;16589630;28;20221;-47
2022/11/20 17:18:08;;;;;;;3.30;3.00;;;;;11.10;98220.00;;;;16587810;28;20262;-46
2022/11/20 17:26:13;;;;;;;7.30;5.33;;;;;11.30;98220.00;;;;16603690;28;20215;-47
2022/11/20 17:34:17;;;;;;;5.07;4.60;;;;;11.30;98214.00;;;;16583126;28;20219;-47
2022/11/20 17:42:35;;;;;;;5.90;5.03;;;;;11.10;98210.00;;;;16614733;28;20222;-47
2022/11/20 17:50:39;;;;;;;6.00;5.50;;;;;11.10;98194.00;;;;16613610;28;20695;-47
2022/11/20 17:58:41;;;;;;;4.40;3.77;;;;;11.10;98194.00;;;;16634253;28;20849;-47
2022/11/20 18:06:45;;;;;;;3.63;3.10;;;;;11.20;98185.00;;;;16626830;28;20219;-47
2022/11/20 18:14:48;;;;;;;3.17;2.97;;;;;11.20;98173.00;;;;16619473;28;20229;-47
2022/11/20 18:22:52;;;;;;;3.10;2.80;;;;;11.10;98170.00;;;;16613323;28;20273;-47
2022/11/20 18:30:54;;;;;;;3.40;2.30;;;;;11.50;98169.00;;;;16627062;28;20233;-47
2022/11/20 18:39:00;;;;;;;2.50;2.30;;;;;11.30;98146.00;;;;16616072;28;20255;-47
2022/11/20 18:47:03;;;;;;;4.10;3.80;;;;;11.20;98133.00;;;;16605769;28;20256;-47
2022/11/20 18:55:08;;;;;;;3.03;2.73;;;;;11.10;98125.00;;;;16628619;28;20225;-47
2022/11/20 19:03:11;;;;;;;3.87;3.57;;;;;10.70;98136.00;;;;16628581;28;22306;-47
2022/11/20 19:11:15;;;;;;;1.97;1.80;;;;;9.90;98149.00;;;;16627585;28;20226;-47
2022/11/20 19:19:18;;;;;;;6.97;4.80;;;;;9.90;98132.00;;;;16625930;28;20250;-47
2022/11/20 19:27:22;;;;;;;2.97;2.70;;;;;9.60;98158.00;;;;16618546;28;20264;-47
2022/11/20 19:35:25;;;;;;;6.77;4.43;;;;;9.90;98133.00;;;;16594508;28;20781;-47
2022/11/20 19:43:29;;;;;;;4.10;3.20;;;;;10.00;98122.00;;;;16600121;28;20249;-46
2022/11/20 19:51:33;;;;;;;1.60;1.50;;;;;9.90;98109.00;;;;16602094;28;20225;-45
2022/11/20 19:59:37;;;;;;;2.37;2.17;;;;;10.20;98110.00;;;;16613814;28;20219;-47
2022/11/20 20:07:40;;;;;;;2.33;2.10;;;;;10.10;98105.00;;;;16600426;28;20861;-46
2022/11/20 20:15:44;;;;;;;2.47;1.97;;;;;10.00;98108.00;;;;16599143;28;20333;-47
2022/11/20 20:23:51;;;;;;;1.60;1.40;;;;;9.90;98116.00;;;;16607257;28;20230;-47
2022/11/20 20:31:55;;;;;;;1.13;1.03;;;;;9.60;98114.00;;;;16586538;28;20226;-46
2022/11/20 20:39:58;;;;;;;1.20;1.10;;;;;9.80;98115.00;;;;16588580;28;20278;-46
2022/11/20 20:48:02;;;;;;;0.80;0.80;;;;;9.60;98113.00;;;;16602210;28;20226;-46
2022/11/20 20:56:05;;;;;;;1.00;1.00;;;;;9.40;98120.00;;;;16624906;28;20717;-46
2022/11/20 21:04:10;;;;;;;1.13;1.00;;;;;9.20;98127.00;;;;16623236;28;20206;-47
2022/11/20 21:12:12;;;;;;;2.23;1.90;;;;;9.10;98136.00;;;;16629151;28;20218;-47
2022/11/20 21:28:34;;;;;;;0.90;0.83;;;;;9.00;98144.00;;;;16624468;28;20219;-46
2022/11/20 21:36:38;;;;;;;1.60;1.50;;;;;8.90;98126.00;;;;16627813;28;20697;-48
2022/11/20 21:44:40;;;;;;;1.90;1.50;;;;;8.80;98117.00;;;;16628822;28;20195;-47
2022/11/20 21:52:44;;;;;;;1.47;0.83;;;;;9.00;98122.00;;;;16630570;28;20227;-47
2022/11/20 22:00:47;;;;;;;2.03;1.67;;;;;8.80;98135.00;;;;16612209;28;20594;-46
2022/11/20 22:08:51;;;;;;;1.47;1.37;;;;;8.90;98137.00;;;;16598298;28;20634;-46
2022/11/20 22:16:54;;;;;;;93.73;21.77;;;;;9.20;98146.00;;;;16598918;28;20245;-47
2022/11/20 22:24:58;;;;;;;1.30;1.20;;;;;9.60;98138.00;;;;16595345;28;20203;-47
2022/11/20 22:33:00;;;;;;;2.23;1.10;;;;;9.50;98134.00;;;;16582435;28;20606;-48
2022/11/20 22:41:05;;;;;;;1.63;1.30;;;;;9.20;98144.00;;;;16581706;28;20935;-47
2022/11/20 22:49:08;;;;;;;10.50;8.13;;;;;9.30;98150.00;;;;16579565;28;20230;-47
2022/11/20 22:57:12;;;;;;;1.43;1.33;;;;;9.30;98147.00;;;;16575808;28;20227;-46
2022/11/20 23:05:15;;;;;;;1.77;1.67;;;;;9.20;98155.00;;;;16582014;28;20196;-48
2022/11/20 23:13:19;;;;;;;1.30;1.20;;;;;9.20;98158.00;;;;16574238;28;20883;-46
2022/11/20 23:21:21;;;;;;;1.00;1.00;;;;;9.30;98152.00;;;;16581648;28;20223;-47
2022/11/20 23:29:25;;;;;;;1.00;1.00;;;;;9.50;98158.00;;;;16592864;28;20219;-46
2022/11/20 23:37:28;;;;;;;0.83;0.83;;;;;9.40;98165.00;;;;16589822;28;21058;-47
2022/11/20 23:45:32;;;;;;;1.50;0.70;;;;;9.50;98160.00;;;;16593239;28;20836;-47
2022/11/20 23:53:34;;;;;;;0.80;0.80;;;;;9.50;98159.00;;;;16591701;28;20223;-46
